Time;durP1;ratioP1;P1;durP2;ratioP2;P2;SDS_P1;SDS_P2;PMS_P1;PMS_P2;Temp;Humidity;BMP_temperature;BMP_pressure;BME280_temperature;BME280_humidity;BME280_pressure;Samples;Min_cycle;Max_cycle;Signal;HPM_P1;HPM_P2
2022/07/06 00:02:06;;;;;;;2.30;1.20;;;;;;;;;;5061776;28;20430;-84
2022/07/06 00:04:33;;;;;;;4.07;1.25;;;;;;;;;;5060719;28;20076;-84
2022/07/06 00:07:00;;;;;;;10.18;1.25;;;;;;;;;;5060175;28;20044;-83
2022/07/06 00:09:28;;;;;;;1.42;1.20;;;;;;;;;;5059819;28;20119;-83
2022/07/06 00:11:55;;;;;;;1.15;1.05;;;;;;;;;;5059729;28;20045;-84
2022/07/06 00:14:22;;;;;;;1.58;0.85;;;;;;;;;;5059789;28;20414;-83
2022/07/06 00:16:49;;;;;;;2.70;1.20;;;;;;;;;;5078393;28;20426;-84
2022/07/06 00:19:16;;;;;;;5.07;1.38;;;;;;;;;;5060627;28;20135;-84
2022/07/06 00:21:44;;;;;;;1.13;0.93;;;;;;;;;;5060185;28;20079;-83
2022/07/06 00:24:11;;;;;;;2.72;1.20;;;;;;;;;;5060649;28;20041;-84
2022/07/06 00:26:38;;;;;;;2.85;1.00;;;;;;;;;;5060121;28;20098;-84
2022/07/06 00:29:05;;;;;;;3.20;1.10;;;;;;;;;;5060260;28;20048;-83
2022/07/06 00:31:32;;;;;;;2.17;0.93;;;;;;;;;;5058842;28;20076;-83
2022/07/06 00:33:59;;;;;;;2.30;1.08;;;;;;;;;;5059462;28;20094;-84
2022/07/06 00:36:27;;;;;;;1.10;1.10;;;;;;;;;;5059173;28;20049;-83
2022/07/06 00:38:54;;;;;;;1.30;1.05;;;;;;;;;;5059732;28;20052;-83
2022/07/06 00:41:21;;;;;;;2.22;0.93;;;;;;;;;;5058927;28;20423;-83
2022/07/06 00:43:55;;;;;;;1.00;0.75;;;;;;;;;;5059718;28;20053;-83
2022/07/06 00:46:31;;;;;;;0.93;0.80;;;;;;;;;;5059007;28;20060;-83
2022/07/06 00:48:58;;;;;;;1.90;1.45;;;;;;;;;;5059406;28;20055;-83
2022/07/06 00:51:28;;;;;;;1.98;1.00;;;;;;;;;;5059091;28;20067;-83
2022/07/06 00:53:55;;;;;;;1.10;0.80;;;;;;;;;;5059107;28;20101;-84
2022/07/06 00:56:23;;;;;;;1.70;1.27;;;;;;;;;;5058981;28;20422;-83
2022/07/06 00:58:50;;;;;;;1.02;1.00;;;;;;;;;;5059509;28;20076;-84
2022/07/06 01:01:17;;;;;;;1.00;0.82;;;;;;;;;;5077603;28;20055;-84
2022/07/06 01:03:44;;;;;;;6.10;1.27;;;;;;;;;;5077285;28;20048;-84
2022/07/06 01:06:12;;;;;;;1.05;1.00;;;;;;;;;;5059065;28;20044;-83
2022/07/06 01:08:39;;;;;;;1.55;0.90;;;;;;;;;;5058145;28;20106;-83
2022/07/06 01:11:07;;;;;;;2.47;0.88;;;;;;;;;;5075429;28;20516;-82
2022/07/06 01:13:34;;;;;;;1.45;1.20;;;;;;;;;;5057169;28;20078;-83
2022/07/06 01:16:01;;;;;;;1.65;1.02;;;;;;;;;;5074832;28;20048;-83
2022/07/06 01:18:28;;;;;;;6.80;1.33;;;;;;;;;;5056979;28;20074;-83
2022/07/06 01:21:09;;;;;;;1.35;1.10;;;;;;;;;;5056409;28;20557;-83
2022/07/06 01:23:40;;;;;;;3.92;0.90;;;;;;;;;;5056059;28;20477;-83
2022/07/06 01:26:09;;;;;;;14.95;1.85;;;;;;;;;;5074964;28;20481;-83
2022/07/06 01:28:36;;;;;;;4.47;1.40;;;;;;;;;;5057264;28;20102;-83
2022/07/06 01:31:03;;;;;;;2.50;1.38;;;;;;;;;;5056325;28;20068;-83
2022/07/06 01:33:30;;;;;;;2.22;1.20;;;;;;;;;;5056442;28;20539;-83
2022/07/06 01:35:57;;;;;;;1.08;1.00;;;;;;;;;;5057858;28;20095;-84
2022/07/06 01:38:25;;;;;;;4.93;1.45;;;;;;;;;;5059067;28;20048;-84
2022/07/06 01:40:52;;;;;;;1.05;1.00;;;;;;;;;;5058661;28;20080;-83
2022/07/06 01:43:19;;;;;;;1.38;1.23;;;;;;;;;;5058750;28;20110;-83
2022/07/06 01:45:46;;;;;;;3.25;1.08;;;;;;;;;;5059309;28;20128;-83
2022/07/06 01:48:13;;;;;;;2.55;1.30;;;;;;;;;;5059596;28;20068;-83
2022/07/06 01:50:40;;;;;;;3.58;1.17;;;;;;;;;;5060720;28;20044;-84
2022/07/06 01:53:07;;;;;;;2.22;1.40;;;;;;;;;;5061002;28;20045;-84
2022/07/06 01:55:35;;;;;;;1.42;1.13;;;;;;;;;;5079142;28;20109;-84
2022/07/06 01:58:02;;;;;;;3.92;1.70;;;;;;;;;;5065603;28;20052;-83
2022/07/06 02:00:29;;;;;;;2.20;1.20;;;;;;;;;;5088268;28;20044;-83
2022/07/06 02:02:56;;;;;;;3.63;1.30;;;;;;;;;;5058609;28;20076;-84
2022/07/06 02:05:23;;;;;;;5.55;1.23;;;;;;;;;;5058358;28;20102;-83
2022/07/06 02:07:50;;;;;;;4.22;1.65;;;;;;;;;;5076450;28;20045;-84
2022/07/06 02:10:17;;;;;;;3.35;1.08;;;;;;;;;;5057698;28;20044;-84
2022/07/06 02:12:45;;;;;;;2.47;1.10;;;;;;;;;;5058462;28;20094;-83
2022/07/06 02:15:12;;;;;;;4.30;1.23;;;;;;;;;;5058439;28;20556;-84
2022/07/06 02:17:39;;;;;;;4.05;1.35;;;;;;;;;;5057871;28;20088;-84
2022/07/06 02:20:07;;;;;;;1.90;1.52;;;;;;;;;;5057767;28;20055;-83
2022/07/06 02:22:34;;;;;;;2.40;1.40;;;;;;;;;;5057581;28;20118;-83
2022/07/06 02:25:01;;;;;;;1.75;1.27;;;;;;;;;;5058034;28;20444;-84
2022/07/06 02:27:28;;;;;;;1.75;1.40;;;;;;;;;;5057898;28;20064;-82
2022/07/06 02:29:55;;;;;;;2.72;1.13;;;;;;;;;;5057952;28;20079;-84
2022/07/06 02:32:22;;;;;;;1.35;1.25;;;;;;;;;;5058285;28;20048;-83
2022/07/06 02:34:49;;;;;;;2.47;1.13;;;;;;;;;;5058093;28;20390;-84
2022/07/06 02:37:16;;;;;;;4.05;1.42;;;;;;;;;;5060977;28;20052;-84
2022/07/06 02:39:44;;;;;;;4.97;1.23;;;;;;;;;;5061200;28;20098;-84
2022/07/06 02:42:11;;;;;;;2.40;1.50;;;;;;;;;;5061660;28;20079;-84
2022/07/06 02:44:38;;;;;;;4.68;1.67;;;;;;;;;;5061404;28;20045;-84
2022/07/06 02:47:05;;;;;;;3.60;1.50;;;;;;;;;;5061020;28;20048;-83
2022/07/06 02:49:32;;;;;;;4.20;1.48;;;;;;;;;;5059490;28;20063;-83
2022/07/06 02:51:59;;;;;;;5.20;1.42;;;;;;;;;;5059137;28;20094;-83
2022/07/06 02:54:27;;;;;;;3.28;1.60;;;;;;;;;;5058906;28;20048;-83
2022/07/06 02:56:54;;;;;;;4.00;1.38;;;;;;;;;;5059299;28;20048;-83
2022/07/06 02:59:21;;;;;;;2.17;1.52;;;;;;;;;;5059061;28;20127;-83
2022/07/06 03:01:48;;;;;;;2.33;1.67;;;;;;;;;;5059310;28;20044;-83
2022/07/06 03:04:15;;;;;;;4.45;1.83;;;;;;;;;;5059150;28;20041;-83
2022/07/06 03:06:42;;;;;;;2.67;1.55;;;;;;;;;;5076941;28;20072;-83
2022/07/06 03:09:09;;;;;;;3.13;1.25;;;;;;;;;;5058771;28;20083;-83
2022/07/06 03:11:37;;;;;;;2.50;1.38;;;;;;;;;;5058722;28;20053;-83
2022/07/06 03:14:04;;;;;;;1.98;1.20;;;;;;;;;;5058872;28;20414;-83
2022/07/06 03:16:31;;;;;;;2.25;1.63;;;;;;;;;;5058260;28;20514;-83
2022/07/06 03:18:59;;;;;;;1.85;1.45;;;;;;;;;;5078972;28;20049;-84
2022/07/06 03:21:26;;;;;;;1.83;1.77;;;;;;;;;;5060945;28;20067;-84
2022/07/06 03:23:53;;;;;;;2.35;1.58;;;;;;;;;;5061460;28;20114;-83
2022/07/06 03:26:20;;;;;;;1.88;1.77;;;;;;;;;;5062400;28;20490;-84
2022/07/06 03:28:47;;;;;;;2.17;1.90;;;;;;;;;;5061414;28;20498;-84
2022/07/06 03:31:15;;;;;;;2.42;1.60;;;;;;;;;;5061556;28;20686;-84
2022/07/06 03:33:42;;;;;;;10.10;1.70;;;;;;;;;;5062265;28;20080;-84
2022/07/06 03:36:09;;;;;;;2.58;1.95;;;;;;;;;;5061964;28;20062;-84
2022/07/06 03:38:37;;;;;;;2.13;2.00;;;;;;;;;;5061918;28;20059;-84
2022/07/06 03:41:04;;;;;;;2.20;1.90;;;;;;;;;;5061758;28;20056;-84
2022/07/06 03:43:31;;;;;;;3.63;1.70;;;;;;;;;;5063510;28;20049;-84
2022/07/06 03:45:58;;;;;;;2.70;1.92;;;;;;;;;;5062721;28;20044;-84
2022/07/06 03:48:25;;;;;;;1.80;1.70;;;;;;;;;;5062007;28;20410;-84
2022/07/06 03:50:53;;;;;;;8.35;4.40;;;;;;;;;;5080485;28;20084;-84
2022/07/06 03:53:20;;;;;;;14.52;10.32;;;;;;;;;;5062710;28;20410;-84
2022/07/06 03:56:27;;;;;;;9.10;6.40;;;;;;;;;;5062441;28;20409;-84
2022/07/06 03:58:34;;;;;;;8.20;5.75;;;;;;;;;;5081584;28;20048;-84
2022/07/06 04:01:01;;;;;;;5.95;5.38;;;;;;;;;;5063401;28;20048;-84
2022/07/06 04:03:29;;;;;;;7.75;4.25;;;;;;;;;;5063196;28;20166;-84
2022/07/06 04:06:00;;;;;;;6.30;5.10;;;;;;;;;;5064578;28;20049;-84
2022/07/06 04:08:27;;;;;;;5.10;3.90;;;;;;;;;;5064158;28;20117;-84
2022/07/06 04:10:54;;;;;;;3.28;3.00;;;;;;;;;;5064316;28;20051;-84
2022/07/06 04:13:21;;;;;;;3.83;2.30;;;;;;;;;;5064218;28;20040;-84
2022/07/06 04:15:48;;;;;;;2.45;1.70;;;;;;;;;;5064391;28;20048;-84
2022/07/06 04:18:16;;;;;;;1.85;1.73;;;;;;;;;;5065200;28;20367;-85
2022/07/06 04:20:44;;;;;;;3.70;2.17;;;;;;;;;;5069440;28;20049;-83
2022/07/06 04:23:11;;;;;;;2.08;1.50;;;;;;;;;;5071565;28;20101;-83
2022/07/06 04:25:39;;;;;;;1.90;1.80;;;;;;;;;;5062403;28;20048;-84
2022/07/06 04:28:06;;;;;;;1.67;1.63;;;;;;;;;;5062560;28;20071;-84
2022/07/06 04:30:33;;;;;;;3.10;2.28;;;;;;;;;;5063118;28;20144;-84
2022/07/06 04:33:00;;;;;;;11.63;2.10;;;;;;;;;;5082581;28;20124;-83
2022/07/06 04:35:27;;;;;;;3.47;1.98;;;;;;;;;;5063593;28;20074;-84
2022/07/06 04:37:55;;;;;;;5.05;2.15;;;;;;;;;;5062945;28;20261;-84
2022/07/06 04:40:23;;;;;;;4.53;1.58;;;;;;;;;;5064121;28;20052;-84
2022/07/06 04:42:50;;;;;;;2.58;1.92;;;;;;;;;;5063556;28;20060;-83
2022/07/06 04:45:17;;;;;;;6.47;1.95;;;;;;;;;;5080830;28;20047;-84
2022/07/06 04:47:44;;;;;;;8.30;5.97;;;;;;;;;;5080915;28;20044;-83
2022/07/06 04:50:12;;;;;;;10.77;9.65;;;;;;;;;;5079066;28;20053;-84
2022/07/06 04:52:39;;;;;;;3.83;1.60;;;;;;;;;;5060610;28;20063;-84
2022/07/06 04:55:08;;;;;;;7.30;3.70;;;;;;;;;;5061159;28;20051;-84
2022/07/06 04:57:35;;;;;;;30.50;26.67;;;;;;;;;;5060503;28;20053;-83
2022/07/06 05:00:04;;;;;;;20.80;18.60;;;;;;;;;;5060212;28;20052;-83
2022/07/06 05:02:31;;;;;;;9.20;8.35;;;;;;;;;;5061362;28;20102;-83
2022/07/06 05:04:59;;;;;;;3.75;2.00;;;;;;;;;;5061821;28;20484;-84
2022/07/06 05:07:29;;;;;;;4.78;1.50;;;;;;;;;;5061257;28;20052;-84
2022/07/06 05:09:56;;;;;;;2.35;1.60;;;;;;;;;;5059897;28;20037;-84
2022/07/06 05:12:23;;;;;;;3.05;1.40;;;;;;;;;;5059293;28;20040;-84
2022/07/06 05:14:50;;;;;;;2.22;1.55;;;;;;;;;;5059482;28;20048;-84
2022/07/06 05:17:17;;;;;;;10.02;2.72;;;;;;;;;;5077428;28;20048;-85
2022/07/06 05:19:44;;;;;;;1.95;1.83;;;;;;;;;;5077328;28;20052;-84
2022/07/06 05:22:12;;;;;;;9.45;1.80;;;;;;;;;;5058735;28;20052;-83
2022/07/06 05:24:39;;;;;;;5.07;2.03;;;;;;;;;;5058827;28;20171;-83
2022/07/06 05:27:06;;;;;;;10.10;2.33;;;;;;;;;;5058190;28;20457;-83
2022/07/06 05:29:33;;;;;;;4.85;1.58;;;;;;;;;;5058232;28;20101;-84
2022/07/06 05:32:00;;;;;;;11.65;2.47;;;;;;;;;;5058473;28;20048;-83
2022/07/06 05:34:28;;;;;;;10.32;2.55;;;;;;;;;;5058100;28;20067;-83
2022/07/06 05:36:55;;;;;;;55.22;4.97;;;;;;;;;;5058266;28;20048;-83
2022/07/06 05:39:23;;;;;;;33.42;4.50;;;;;;;;;;5058340;28;20053;-83
2022/07/06 05:41:50;;;;;;;44.50;4.30;;;;;;;;;;5058261;28;20052;-83
2022/07/06 05:44:17;;;;;;;43.15;4.50;;;;;;;;;;5058309;28;20084;-84
2022/07/06 05:46:44;;;;;;;12.98;4.60;;;;;;;;;;5058039;28;20048;-84
2022/07/06 05:51:57;;;;;;;13.43;4.53;;;;;;;;;;5075759;28;20497;-83
2022/07/06 05:54:24;;;;;;;9.18;3.47;;;;;;;;;;5075530;28;20072;-83
2022/07/06 05:56:51;;;;;;;12.45;2.15;;;;;;;;;;5076058;28;20478;-83
2022/07/06 05:59:18;;;;;;;18.42;1.90;;;;;;;;;;5075618;28;20064;-83
2022/07/06 06:01:46;;;;;;;14.02;2.40;;;;;;;;;;5057505;28;20060;-83
2022/07/06 06:04:13;;;;;;;6.50;1.23;;;;;;;;;;5075959;28;20045;-83
2022/07/06 06:06:40;;;;;;;2.05;1.00;;;;;;;;;;5075029;28;20097;-83
2022/07/06 06:09:07;;;;;;;2.15;1.00;;;;;;;;;;5057373;28;20048;-84
2022/07/06 06:11:34;;;;;;;4.05;1.20;;;;;;;;;;5058188;28;20105;-83
2022/07/06 06:14:01;;;;;;;5.13;1.00;;;;;;;;;;5058223;28;20098;-83
2022/07/06 06:16:28;;;;;;;6.57;1.50;;;;;;;;;;5058563;28;20080;-83
2022/07/06 06:18:56;;;;;;;2.45;0.93;;;;;;;;;;5076183;28;20490;-82
2022/07/06 06:21:23;;;;;;;2.03;0.98;;;;;;;;;;5058334;28;20405;-83
2022/07/06 06:23:51;;;;;;;1.20;1.10;;;;;;;;;;5058190;28;20067;-83
2022/07/06 06:26:18;;;;;;;2.47;1.10;;;;;;;;;;5061710;28;20049;-84
2022/07/06 06:28:45;;;;;;;4.57;0.95;;;;;;;;;;5079079;28;20076;-84
2022/07/06 06:31:15;;;;;;;5.15;1.27;;;;;;;;;;5058397;28;20146;-83
2022/07/06 06:33:43;;;;;;;2.63;0.90;;;;;;;;;;5059682;28;20055;-83
2022/07/06 06:36:10;;;;;;;3.35;1.33;;;;;;;;;;5060696;28;20064;-83
2022/07/06 06:38:37;;;;;;;3.42;1.30;;;;;;;;;;5062166;28;20556;-85
2022/07/06 06:41:04;;;;;;;6.07;0.90;;;;;;;;;;5060791;28;20048;-84
2022/07/06 06:43:31;;;;;;;2.50;0.95;;;;;;;;;;5063147;28;20105;-84
2022/07/06 06:45:58;;;;;;;4.20;1.13;;;;;;;;;;5064835;28;20056;-84
2022/07/06 06:48:26;;;;;;;6.88;1.20;;;;;;;;;;5058266;28;20041;-83
2022/07/06 06:50:53;;;;;;;1.90;1.00;;;;;;;;;;5057693;28;20048;-83
2022/07/06 06:53:20;;;;;;;2.55;1.10;;;;;;;;;;5057789;28;20494;-83
2022/07/06 06:55:47;;;;;;;2.97;1.13;;;;;;;;;;5058288;28;20109;-83
2022/07/06 06:58:15;;;;;;;3.17;0.90;;;;;;;;;;5058317;28;20052;-84
2022/07/06 07:00:43;;;;;;;2.67;1.02;;;;;;;;;;5058539;28;20052;-84
2022/07/06 07:03:10;;;;;;;3.50;0.80;;;;;;;;;;5057629;28;20108;-84
2022/07/06 07:05:37;;;;;;;6.07;0.75;;;;;;;;;;5059233;28;20062;-84
2022/07/06 07:08:04;;;;;;;2.80;0.90;;;;;;;;;;5058600;28;20444;-81
2022/07/06 07:10:32;;;;;;;5.00;0.80;;;;;;;;;;5058823;28;20049;-84
2022/07/06 07:13:00;;;;;;;3.03;0.90;;;;;;;;;;5058394;28;20052;-84
2022/07/06 07:15:27;;;;;;;4.57;0.85;;;;;;;;;;5059427;28;20048;-82
2022/07/06 07:17:54;;;;;;;1.83;0.60;;;;;;;;;;5059384;28;20044;-82
2022/07/06 07:20:22;;;;;;;4.65;0.80;;;;;;;;;;5077555;28;20045;-85
2022/07/06 07:22:49;;;;;;;5.60;1.10;;;;;;;;;;5062492;28;20040;-83
2022/07/06 07:25:16;;;;;;;4.03;1.02;;;;;;;;;;5064105;28;20506;-82
2022/07/06 07:27:43;;;;;;;5.03;0.70;;;;;;;;;;5081576;28;20044;-83
2022/07/06 07:30:10;;;;;;;3.63;0.75;;;;;;;;;;5063022;28;20098;-83
2022/07/06 07:32:40;;;;;;;3.15;0.75;;;;;;;;;;5063795;28;20060;-83
2022/07/06 07:35:07;;;;;;;5.05;0.90;;;;;;;;;;5063886;28;20049;-84
2022/07/06 07:37:34;;;;;;;2.92;0.70;;;;;;;;;;5082414;28;20084;-83
2022/07/06 07:40:02;;;;;;;5.18;0.90;;;;;;;;;;5063878;28;20044;-83
2022/07/06 07:42:29;;;;;;;4.20;0.90;;;;;;;;;;5063628;28;20044;-84
2022/07/06 07:44:56;;;;;;;1.30;0.80;;;;;;;;;;5063361;28;20414;-83
2022/07/06 07:47:24;;;;;;;4.20;0.80;;;;;;;;;;5063696;28;20044;-84
2022/07/06 07:49:51;;;;;;;5.43;0.85;;;;;;;;;;5081895;28;20049;-84
2022/07/06 07:52:18;;;;;;;3.33;0.82;;;;;;;;;;5063829;28;20058;-84
2022/07/06 07:54:45;;;;;;;7.45;1.10;;;;;;;;;;5064207;28;20405;-83
2022/07/06 07:57:23;;;;;;;2.65;0.85;;;;;;;;;;5082157;28;20090;-84
2022/07/06 07:59:51;;;;;;;2.42;1.00;;;;;;;;;;5063912;28;20074;-84
2022/07/06 08:02:18;;;;;;;3.92;1.50;;;;;;;;;;5063460;28;20394;-84
2022/07/06 08:04:45;;;;;;;3.60;1.10;;;;;;;;;;5081632;28;20045;-84
2022/07/06 08:07:12;;;;;;;3.22;0.98;;;;;;;;;;5063732;28;20052;-83
2022/07/06 08:09:39;;;;;;;2.10;0.90;;;;;;;;;;5064399;28;20045;-84
2022/07/06 08:12:07;;;;;;;2.88;0.80;;;;;;;;;;5065548;28;20074;-84
2022/07/06 08:14:34;;;;;;;2.60;0.80;;;;;;;;;;5065687;28;20064;-84
2022/07/06 08:17:01;;;;;;;5.20;1.20;;;;;;;;;;5064855;28;20049;-83
2022/07/06 08:19:30;;;;;;;4.25;0.82;;;;;;;;;;5066606;28;20114;-83
2022/07/06 08:21:57;;;;;;;8.00;1.17;;;;;;;;;;5082335;28;20102;-84
2022/07/06 08:24:24;;;;;;;3.33;1.20;;;;;;;;;;5063522;28;20505;-83
2022/07/06 08:26:52;;;;;;;6.50;0.80;;;;;;;;;;5065089;28;20082;-83
2022/07/06 08:29:19;;;;;;;1.15;0.60;;;;;;;;;;5064389;28;20053;-84
2022/07/06 08:31:46;;;;;;;1.98;0.98;;;;;;;;;;5081211;28;20049;-83
2022/07/06 08:34:24;;;;;;;5.00;0.90;;;;;;;;;;5078820;28;20044;-83
2022/07/06 08:36:59;;;;;;;5.82;1.30;;;;;;;;;;5063738;28;20056;-82
2022/07/06 08:39:26;;;;;;;2.70;1.20;;;;;;;;;;5061613;28;20044;-83
2022/07/06 08:41:55;;;;;;;2.72;1.05;;;;;;;;;;5081974;28;20052;-83
2022/07/06 08:44:24;;;;;;;3.97;0.75;;;;;;;;;;5062025;28;20052;-84
2022/07/06 08:46:52;;;;;;;4.18;0.95;;;;;;;;;;5081388;28;20140;-83
2022/07/06 08:49:20;;;;;;;2.70;0.90;;;;;;;;;;5063867;28;20051;-84
2022/07/06 08:51:48;;;;;;;7.43;2.60;;;;;;;;;;5064906;28;20040;-84
2022/07/06 08:54:15;;;;;;;9.68;1.70;;;;;;;;;;5064403;28;20098;-83
2022/07/06 08:56:42;;;;;;;7.55;2.00;;;;;;;;;;5062729;28;20139;-84
2022/07/06 08:59:15;;;;;;;3.65;1.00;;;;;;;;;;5066379;28;20074;-86
2022/07/06 09:01:45;;;;;;;2.08;0.85;;;;;;;;;;5063290;28;20055;-83
2022/07/06 09:04:15;;;;;;;1.45;0.50;;;;;;;;;;5067434;28;20044;-84
2022/07/06 09:06:44;;;;;;;3.47;1.02;;;;;;;;;;5066425;28;20099;-84
2022/07/06 09:09:13;;;;;;;3.58;1.00;;;;;;;;;;5060854;28;20044;-84
2022/07/06 09:11:40;;;;;;;3.97;0.90;;;;;;;;;;5060965;28;20044;-85
2022/07/06 09:14:07;;;;;;;0.93;0.82;;;;;;;;;;5061345;28;20090;-82
2022/07/06 09:16:35;;;;;;;1.38;0.75;;;;;;;;;;5079799;28;20052;-84
2022/07/06 09:19:06;;;;;;;1.70;0.80;;;;;;;;;;5061079;28;20067;-83
2022/07/06 09:21:36;;;;;;;1.33;0.93;;;;;;;;;;5062181;28;20075;-83
2022/07/06 09:24:09;;;;;;;4.38;0.90;;;;;;;;;;5062328;28;20098;-87
2022/07/06 09:26:36;;;;;;;2.13;0.90;;;;;;;;;;5060038;28;20049;-83
2022/07/06 09:29:04;;;;;;;2.53;0.98;;;;;;;;;;5060745;28;20049;-84
2022/07/06 09:31:31;;;;;;;2.80;0.93;;;;;;;;;;5059938;28;20048;-83
2022/07/06 09:34:01;;;;;;;2.30;1.10;;;;;;;;;;5059867;28;20063;-85
2022/07/06 09:36:45;;;;;;;0.93;0.80;;;;;;;;;;5060031;28;20057;-84
2022/07/06 09:39:19;;;;;;;3.10;1.15;;;;;;;;;;5060835;28;20078;-83
2022/07/06 09:41:47;;;;;;;1.38;0.70;;;;;;;;;;5059024;28;20119;-83
2022/07/06 09:44:19;;;;;;;3.90;1.15;;;;;;;;;;5059763;28;20093;-84
2022/07/06 09:46:48;;;;;;;3.63;0.90;;;;;;;;;;5060131;28;20106;-85
2022/07/06 09:49:19;;;;;;;1.38;0.60;;;;;;;;;;5058961;28;20074;-84
2022/07/06 09:51:50;;;;;;;5.55;0.88;;;;;;;;;;5059757;28;20094;-85
2022/07/06 09:54:17;;;;;;;3.85;0.75;;;;;;;;;;5077277;28;20041;-84
2022/07/06 09:56:52;;;;;;;0.68;0.50;;;;;;;;;;5059355;28;20075;-85
2022/07/06 09:59:21;;;;;;;5.53;0.85;;;;;;;;;;5059379;28;20459;-84
2022/07/06 10:01:51;;;;;;;2.20;0.73;;;;;;;;;;5059925;28;20052;-84
2022/07/06 10:04:20;;;;;;;4.97;1.23;;;;;;;;;;5059536;28;20057;-83
2022/07/06 10:06:48;;;;;;;3.90;0.82;;;;;;;;;;5059127;28;20048;-83
2022/07/06 10:09:16;;;;;;;2.72;0.90;;;;;;;;;;5059904;28;20114;-84
2022/07/06 10:11:54;;;;;;;2.40;0.65;;;;;;;;;;5060902;28;20102;-83
2022/07/06 10:14:22;;;;;;;3.03;0.70;;;;;;;;;;5060119;28;20086;-84
2022/07/06 10:16:50;;;;;;;6.57;1.70;;;;;;;;;;5060397;28;20048;-84
2022/07/06 10:19:18;;;;;;;8.40;1.30;;;;;;;;;;5061434;28;20053;-83
2022/07/06 10:21:45;;;;;;;3.90;0.82;;;;;;;;;;5059953;28;20052;-84
2022/07/06 10:24:13;;;;;;;3.17;0.90;;;;;;;;;;5059618;28;20048;-83
2022/07/06 10:26:41;;;;;;;2.28;0.80;;;;;;;;;;5058951;28;20094;-83
2022/07/06 10:29:08;;;;;;;1.63;0.80;;;;;;;;;;5059191;28;20444;-84
2022/07/06 10:31:37;;;;;;;1.25;0.88;;;;;;;;;;5077078;28;20052;-83
2022/07/06 10:34:06;;;;;;;3.92;1.30;;;;;;;;;;5059959;28;20049;-84
2022/07/06 10:36:37;;;;;;;3.30;1.10;;;;;;;;;;5060450;28;20060;-83
2022/07/06 10:41:52;;;;;;;4.07;0.68;;;;;;;;;;5077479;28;20517;-83
2022/07/06 10:44:24;;;;;;;5.55;1.00;;;;;;;;;;5059526;28;20052;-84
2022/07/06 10:46:52;;;;;;;13.40;1.08;;;;;;;;;;5058314;28;20076;-85
2022/07/06 10:49:21;;;;;;;5.55;0.85;;;;;;;;;;5061588;28;20126;-83
2022/07/06 10:52:08;;;;;;;5.57;0.68;;;;;;;;;;5063466;28;20127;-83
2022/07/06 10:54:43;;;;;;;4.72;1.10;;;;;;;;;;5059913;28;20053;-84
2022/07/06 10:57:10;;;;;;;4.10;1.23;;;;;;;;;;5060826;28;20048;-84
2022/07/06 10:59:37;;;;;;;1.65;0.70;;;;;;;;;;5062842;28;20119;-84
2022/07/06 11:02:20;;;;;;;2.58;0.45;;;;;;;;;;5063969;28;20485;-84
2022/07/06 11:04:48;;;;;;;2.67;0.70;;;;;;;;;;5064212;28;20514;-84
2022/07/06 11:07:20;;;;;;;1.45;0.60;;;;;;;;;;5066363;28;20048;-84
2022/07/06 11:09:57;;;;;;;2.72;0.70;;;;;;;;;;5065159;28;20044;-83
2022/07/06 11:12:25;;;;;;;1.70;0.70;;;;;;;;;;5064826;28;20052;-84
2022/07/06 11:14:52;;;;;;;4.13;0.85;;;;;;;;;;5063679;28;20067;-83
2022/07/06 11:17:20;;;;;;;2.05;0.60;;;;;;;;;;5063691;28;20048;-84
2022/07/06 11:19:50;;;;;;;2.35;0.60;;;;;;;;;;5063462;28;20052;-82
2022/07/06 11:22:18;;;;;;;0.60;0.45;;;;;;;;;;5064828;28;20166;-83
2022/07/06 11:24:46;;;;;;;1.48;1.00;;;;;;;;;;5066500;28;20102;-82
2022/07/06 11:27:14;;;;;;;1.83;0.77;;;;;;;;;;5087815;28;20044;-83
2022/07/06 11:29:41;;;;;;;2.88;0.70;;;;;;;;;;5072333;28;20074;-83
2022/07/06 11:32:10;;;;;;;2.33;0.65;;;;;;;;;;5065988;28;20041;-84
2022/07/06 11:34:42;;;;;;;2.40;0.63;;;;;;;;;;5065748;28;20044;-84
2022/07/06 11:37:13;;;;;;;1.67;0.90;;;;;;;;;;5065545;28;20277;-83
2022/07/06 11:39:41;;;;;;;2.58;0.60;;;;;;;;;;5064470;28;20053;-82
2022/07/06 11:42:09;;;;;;;3.03;0.80;;;;;;;;;;5064832;28;20082;-83
2022/07/06 11:44:37;;;;;;;1.80;0.57;;;;;;;;;;5062876;28;20049;-83
2022/07/06 11:47:06;;;;;;;0.50;0.50;;;;;;;;;;5063133;28;20053;-83
2022/07/06 11:49:34;;;;;;;2.40;0.60;;;;;;;;;;5064759;28;20481;-81
2022/07/06 11:52:06;;;;;;;1.73;0.60;;;;;;;;;;5081800;28;20121;-84
2022/07/06 11:54:33;;;;;;;2.83;0.82;;;;;;;;;;5063733;28;20049;-83
2022/07/06 11:57:00;;;;;;;23.90;1.92;;;;;;;;;;5063010;28;20469;-84
2022/07/06 11:59:29;;;;;;;2.35;0.60;;;;;;;;;;5064382;28;20068;-84
2022/07/06 12:02:02;;;;;;;5.82;0.70;;;;;;;;;;5063263;28;20048;-86
2022/07/06 12:04:30;;;;;;;5.28;0.90;;;;;;;;;;5063028;28;20052;-84
2022/07/06 12:07:02;;;;;;;0.95;0.63;;;;;;;;;;5064579;28;20074;-83
2022/07/06 12:09:32;;;;;;;2.38;0.70;;;;;;;;;;5063087;28;20082;-86
2022/07/06 12:12:02;;;;;;;9.30;1.33;;;;;;;;;;5082018;28;20460;-83
2022/07/06 12:14:30;;;;;;;2.22;0.70;;;;;;;;;;5063828;28;20045;-84
2022/07/06 12:17:02;;;;;;;3.20;0.70;;;;;;;;;;5062733;28;20048;-83
2022/07/06 12:19:30;;;;;;;2.97;0.82;;;;;;;;;;5061051;28;20059;-83
2022/07/06 12:21:57;;;;;;;3.35;0.73;;;;;;;;;;5060867;28;20056;-83
2022/07/06 12:24:27;;;;;;;0.52;0.47;;;;;;;;;;5060820;28;20053;-83
2022/07/06 12:26:55;;;;;;;2.17;0.75;;;;;;;;;;5080021;28;20048;-83
2022/07/06 12:29:22;;;;;;;1.63;0.75;;;;;;;;;;5060741;28;20059;-83
2022/07/06 12:31:52;;;;;;;3.85;0.70;;;;;;;;;;5078970;28;20106;-85
2022/07/06 12:34:20;;;;;;;4.07;0.65;;;;;;;;;;5060911;28;20048;-86
2022/07/06 12:36:49;;;;;;;1.40;0.50;;;;;;;;;;5062025;28;20059;-85
2022/07/06 12:39:17;;;;;;;1.27;0.70;;;;;;;;;;5061888;28;20072;-85
2022/07/06 12:41:48;;;;;;;8.68;1.05;;;;;;;;;;5059360;28;20543;-87
2022/07/06 12:44:21;;;;;;;3.38;0.63;;;;;;;;;;5060580;28;20071;-86
2022/07/06 12:46:49;;;;;;;2.33;0.60;;;;;;;;;;5060157;28;20079;-86
2022/07/06 12:49:17;;;;;;;2.47;0.60;;;;;;;;;;5061736;28;20040;-86
2022/07/06 12:51:52;;;;;;;0.68;0.68;;;;;;;;;;5080005;28;20044;-84
2022/07/06 12:54:19;;;;;;;2.58;0.50;;;;;;;;;;5079519;28;20106;-86
2022/07/06 12:57:16;;;;;;;4.25;0.70;;;;;;;;;;5060902;28;20545;-85
2022/07/06 12:59:43;;;;;;;0.68;0.60;;;;;;;;;;5043687;28;20516;-85
2022/07/06 13:02:32;;;;;;;1.92;0.70;;;;;;;;;;5061779;28;20044;-86
2022/07/06 13:05:27;;;;;;;0.75;0.40;;;;;;;;;;5078380;28;20044;-84
2022/07/06 13:07:55;;;;;;;1.50;0.45;;;;;;;;;;5060767;28;20044;-85
2022/07/06 13:10:24;;;;;;;1.02;0.52;;;;;;;;;;5060736;28;20071;-85
2022/07/06 13:12:51;;;;;;;4.95;0.55;;;;;;;;;;5060677;28;20044;-86
2022/07/06 13:15:18;;;;;;;0.75;0.50;;;;;;;;;;5060854;28;20045;-85
2022/07/06 13:17:45;;;;;;;0.32;0.32;;;;;;;;;;5060296;28;20044;-86
2022/07/06 13:20:14;;;;;;;0.70;0.40;;;;;;;;;;5078812;28;20469;-86
2022/07/06 13:22:41;;;;;;;2.08;0.60;;;;;;;;;;5059876;28;20523;-85
2022/07/06 13:25:08;;;;;;;2.05;0.60;;;;;;;;;;5061458;28;20460;-86
2022/07/06 13:27:35;;;;;;;4.18;0.60;;;;;;;;;;5063091;28;20106;-84
2022/07/06 13:30:04;;;;;;;2.65;0.40;;;;;;;;;;5065019;28;20049;-86
2022/07/06 13:32:32;;;;;;;1.85;0.40;;;;;;;;;;5081437;28;20067;-85
2022/07/06 13:34:59;;;;;;;7.13;0.85;;;;;;;;;;5062603;28;20055;-86
2022/07/06 13:37:26;;;;;;;2.15;0.60;;;;;;;;;;5060724;28;20078;-86
2022/07/06 13:39:54;;;;;;;2.45;0.40;;;;;;;;;;5080773;28;20055;-86
2022/07/06 13:42:21;;;;;;;2.63;2.03;;;;;;;;;;5063478;28;20060;-86
2022/07/06 13:44:48;;;;;;;0.73;0.40;;;;;;;;;;5062266;28;20490;-85
2022/07/06 13:47:16;;;;;;;1.60;0.40;;;;;;;;;;5066838;28;20074;-85
2022/07/06 13:49:47;;;;;;;4.95;0.68;;;;;;;;;;5071651;28;20044;-85
2022/07/06 13:52:14;;;;;;;0.95;0.50;;;;;;;;;;5061455;28;20421;-86
2022/07/06 13:54:41;;;;;;;0.80;0.40;;;;;;;;;;5078806;28;20048;-84
2022/07/06 13:57:08;;;;;;;4.43;0.50;;;;;;;;;;5059344;28;20041;-86
2022/07/06 13:59:36;;;;;;;0.90;0.60;;;;;;;;;;5076907;28;20090;-86
2022/07/06 14:02:03;;;;;;;1.70;0.63;;;;;;;;;;5060486;28;20486;-85
2022/07/06 14:04:30;;;;;;;15.23;1.02;;;;;;;;;;5059898;28;20116;-85
2022/07/06 14:06:57;;;;;;;3.50;0.50;;;;;;;;;;5059081;28;20106;-85
2022/07/06 14:09:25;;;;;;;1.48;0.50;;;;;;;;;;5060206;28;20045;-84
2022/07/06 14:11:52;;;;;;;0.55;0.47;;;;;;;;;;5060751;28;20049;-86
2022/07/06 14:14:19;;;;;;;5.32;0.80;;;;;;;;;;5058864;28;20052;-84
2022/07/06 14:16:46;;;;;;;1.63;0.60;;;;;;;;;;5059412;28;20040;-86
2022/07/06 14:19:14;;;;;;;4.75;0.68;;;;;;;;;;5058261;28;20049;-85
2022/07/06 14:21:47;;;;;;;3.60;0.52;;;;;;;;;;5077863;28;20417;-86
2022/07/06 14:24:14;;;;;;;4.50;0.60;;;;;;;;;;5058544;28;20052;-86
2022/07/06 14:26:41;;;;;;;1.85;0.70;;;;;;;;;;5057777;28;20056;-85
2022/07/06 14:29:08;;;;;;;2.22;0.60;;;;;;;;;;5058965;28;20453;-86
2022/07/06 14:31:36;;;;;;;2.58;0.68;;;;;;;;;;5075603;28;20503;-85
2022/07/06 14:34:03;;;;;;;0.88;0.52;;;;;;;;;;5058986;28;20045;-83
2022/07/06 14:36:30;;;;;;;1.27;0.60;;;;;;;;;;5078314;28;20054;-82
2022/07/06 14:38:57;;;;;;;4.20;0.57;;;;;;;;;;5078334;28;20056;-83
2022/07/06 14:41:24;;;;;;;3.45;0.60;;;;;;;;;;5058512;28;20049;-83
2022/07/06 14:43:52;;;;;;;9.48;1.13;;;;;;;;;;5059996;28;20045;-83
2022/07/06 14:46:19;;;;;;;2.50;0.70;;;;;;;;;;5059398;28;20065;-82
2022/07/06 14:48:46;;;;;;;2.85;0.47;;;;;;;;;;5060137;28;20497;-82
2022/07/06 14:51:13;;;;;;;2.95;0.70;;;;;;;;;;5060176;28;20048;-83
2022/07/06 14:53:40;;;;;;;1.38;0.50;;;;;;;;;;5062187;28;20045;-84
2022/07/06 14:56:08;;;;;;;1.83;0.70;;;;;;;;;;5058154;28;20045;-83